Time;durP1;ratioP1;P1;durP2;ratioP2;P2;SDS_P1;SDS_P2;PMS_P1;PMS_P2;Temp;Humidity;BMP_temperature;BMP_pressure;BME280_temperature;BME280_humidity;BME280_pressure;Samples;Min_cycle;Max_cycle;Signal;HPM_P1;HPM_P2
2022/06/21 00:02:00;;;;;;;;;;;18.60;90.80;;;;;;4362157;32;42663;-83
2022/06/21 00:04:28;;;;;;;;;;;18.60;90.80;;;;;;4362304;32;42695;-82
2022/06/21 00:06:56;;;;;;;;;;;18.60;90.80;;;;;;4362369;32;43145;-82
2022/06/21 00:09:23;;;;;;;;;;;18.60;90.60;;;;;;4361920;32;44981;-83
2022/06/21 00:11:50;;;;;;;;;;;18.60;90.70;;;;;;4376086;32;43956;-83
2022/06/21 00:14:17;;;;;;;;;;;18.60;90.80;;;;;;4375377;32;44824;-83
2022/06/21 00:16:44;;;;;;;;;;;18.50;90.80;;;;;;4375407;32;42975;-83
2022/06/21 00:19:21;;;;;;;;;;;18.50;90.70;;;;;;4375454;32;42632;-83
2022/06/21 00:21:48;;;;;;;;;;;18.50;90.60;;;;;;4362180;32;45067;-83
2022/06/21 00:24:18;;;;;;;;;;;18.50;90.50;;;;;;4375101;32;44473;-83
2022/06/21 00:26:45;;;;;;;;;;;18.50;90.70;;;;;;4361958;32;44693;-83
2022/06/21 00:29:13;;;;;;;;;;;18.40;90.60;;;;;;4362358;32;43767;-83
2022/06/21 00:31:43;;;;;;;;;;;18.40;90.70;;;;;;4361974;32;46181;-83
2022/06/21 00:34:20;;;;;;;;;;;18.30;90.70;;;;;;4375377;32;43277;-83
2022/06/21 00:36:48;;;;;;;;;;;18.40;90.80;;;;;;4362474;32;43869;-82
2022/06/21 00:39:16;;;;;;;;;;;18.40;90.90;;;;;;4361813;32;42610;-83
2022/06/21 00:41:47;;;;;;;;;;;18.30;90.80;;;;;;4361523;32;44540;-83
2022/06/21 00:44:17;;;;;;;;;;;18.30;90.80;;;;;;4375640;32;19997;-83
2022/06/21 00:46:44;;;;;;;;;;;18.30;90.80;;;;;;4361347;32;43505;-83
2022/06/21 00:49:23;;;;;;;;;;;18.30;90.80;;;;;;4361883;32;45138;-83
2022/06/21 00:51:53;;;;;;;;;;;18.30;90.80;;;;;;4361624;32;43841;-83
2022/06/21 00:54:26;;;;;;;;;;;18.30;90.80;;;;;;4361230;32;44288;-83
2022/06/21 00:56:55;;;;;;;;;;;18.30;90.80;;;;;;4375212;32;44157;-83
2022/06/21 00:59:25;;;;;;;;;;;18.30;90.80;;;;;;4361629;32;43236;-83
2022/06/21 01:01:57;;;;;;;;;;;18.30;90.80;;;;;;4374716;32;44749;-83
2022/06/21 01:04:33;;;;;;;;;;;18.20;90.70;;;;;;4374726;32;42863;-83
2022/06/21 01:07:01;;;;;;;;;;;18.20;90.80;;;;;;4361732;32;43211;-83
2022/06/21 01:09:34;;;;;;;;;;;18.20;90.80;;;;;;4361106;32;45706;-83
2022/06/21 01:12:04;;;;;;;;;;;18.10;90.90;;;;;;4361788;32;45061;-83
2022/06/21 01:14:32;;;;;;;;;;;18.10;90.80;;;;;;4362045;32;20085;-83
2022/06/21 01:16:59;;;;;;;;;;;18.10;90.90;;;;;;4361416;32;43301;-83
2022/06/21 01:19:49;;;;;;;;;;;18.10;90.90;;;;;;4374822;32;43447;-84
2022/06/21 01:22:16;;;;;;;;;;;18.00;90.90;;;;;;4367349;32;44085;-83
2022/06/21 01:24:54;;;;;;;;;;;18.00;91.00;;;;;;4361367;32;43445;-83
2022/06/21 01:27:21;;;;;;;;;;;18.00;91.10;;;;;;4361456;32;43794;-83
2022/06/21 01:29:49;;;;;;;;;;;18.00;90.90;;;;;;4374610;32;45752;-83
2022/06/21 01:32:17;;;;;;;;;;;18.00;90.90;;;;;;4361426;32;42903;-84
2022/06/21 01:34:44;;;;;;;;;;;18.00;91.00;;;;;;4374355;32;44031;-83
2022/06/21 01:37:13;;;;;;;;;;;17.90;90.90;;;;;;4375272;32;44645;-83
2022/06/21 01:39:40;;;;;;;;;;;17.90;90.90;;;;;;4378265;32;43038;-84
2022/06/21 01:42:30;;;;;;;;;;;17.90;91.00;;;;;;4364278;32;42862;-84
2022/06/21 01:45:01;;;;;;;;;;;17.90;91.00;;;;;;4357167;32;20005;-84
2022/06/21 01:47:30;;;;;;;;;;;17.90;91.00;;;;;;4364335;32;44308;-84
2022/06/21 01:50:03;;;;;;;;;;;17.90;91.00;;;;;;4377265;32;45219;-84
2022/06/21 01:52:34;;;;;;;;;;;17.90;90.90;;;;;;4364463;32;46045;-84
2022/06/21 01:55:07;;;;;;;;;;;17.80;90.90;;;;;;4377781;32;44270;-84
2022/06/21 01:57:36;;;;;;;;;;;17.80;91.00;;;;;;4364440;32;44105;-84
2022/06/21 02:00:03;;;;;;;;;;;17.80;91.00;;;;;;4364098;32;45673;-84
2022/06/21 02:02:42;;;;;;;;;;;17.80;91.00;;;;;;4363630;32;45858;-84
2022/06/21 02:05:13;;;;;;;;;;;17.80;91.10;;;;;;4364245;32;44109;-84
2022/06/21 02:07:51;;;;;;;;;;;17.80;91.10;;;;;;4377115;32;44075;-84
2022/06/21 02:10:22;;;;;;;;;;;17.80;91.10;;;;;;4363522;32;42641;-85
2022/06/21 02:12:55;;;;;;;;;;;17.90;91.20;;;;;;4377608;32;45935;-84
2022/06/21 02:15:25;;;;;;;;;;;17.80;91.10;;;;;;4364717;32;20005;-84
2022/06/21 02:17:53;;;;;;;;;;;17.80;91.10;;;;;;4363520;32;42553;-84
2022/06/21 02:20:26;;;;;;;;;;;17.80;91.00;;;;;;4363988;32;43136;-85
2022/06/21 02:22:53;;;;;;;;;;;17.80;91.00;;;;;;4363867;32;43336;-85
2022/06/21 02:25:22;;;;;;;;;;;17.80;91.00;;;;;;4363537;32;44160;-85
2022/06/21 02:27:50;;;;;;;;;;;17.80;91.00;;;;;;4363540;32;42415;-85
2022/06/21 02:30:19;;;;;;;;;;;17.80;90.90;;;;;;4363739;32;42856;-85
2022/06/21 02:32:47;;;;;;;;;;;17.80;90.90;;;;;;4363707;32;44236;-85
2022/06/21 02:35:20;;;;;;;;;;;17.80;90.80;;;;;;4363246;32;42804;-85
2022/06/21 02:37:48;;;;;;;;;;;17.70;90.80;;;;;;4377029;32;42843;-84
2022/06/21 02:40:20;;;;;;;;;;;17.70;90.80;;;;;;4376811;32;43192;-85
2022/06/21 02:42:48;;;;;;;;;;;17.70;91.00;;;;;;4363821;32;44761;-85
2022/06/21 02:45:22;;;;;;;;;;;17.60;90.90;;;;;;4363788;32;43295;-85
2022/06/21 02:47:59;;;;;;;;;;;17.60;91.00;;;;;;4364684;32;20000;-86
2022/06/21 02:50:40;;;;;;;;;;;17.60;91.00;;;;;;4363536;32;43738;-85
2022/06/21 02:53:14;;;;;;;;;;;17.60;91.00;;;;;;4363460;32;44056;-85
2022/06/21 02:56:07;;;;;;;;;;;17.60;91.00;;;;;;4376915;32;43467;-85
2022/06/21 02:58:40;;;;;;;;;;;17.60;91.00;;;;;;4340821;32;45232;-85
2022/06/21 03:01:27;;;;;;;;;;;17.60;90.90;;;;;;4376405;32;45038;-85
2022/06/21 03:03:56;;;;;;;;;;;17.60;91.00;;;;;;4376804;32;43518;-85
2022/06/21 03:06:23;;;;;;;;;;;17.50;90.90;;;;;;4376859;32;44228;-85
2022/06/21 03:08:56;;;;;;;;;;;17.50;90.80;;;;;;4362877;32;43300;-85
2022/06/21 03:11:27;;;;;;;;;;;17.50;90.90;;;;;;4377184;32;44013;-85
2022/06/21 03:13:55;;;;;;;;;;;17.50;91.00;;;;;;4376469;32;44303;-86
2022/06/21 03:16:22;;;;;;;;;;;17.50;90.90;;;;;;4376293;32;43363;-85
2022/06/21 03:18:51;;;;;;;;;;;17.40;91.00;;;;;;4376201;32;42751;-85
2022/06/21 03:21:22;;;;;;;;;;;17.40;91.00;;;;;;4363186;32;43287;-85
2022/06/21 03:23:49;;;;;;;;;;;17.40;90.90;;;;;;4362900;32;44415;-85
2022/06/21 03:26:16;;;;;;;;;;;17.40;90.90;;;;;;4362753;32;44183;-85
2022/06/21 03:28:45;;;;;;;;;;;17.30;90.90;;;;;;4363126;32;44895;-85
2022/06/21 03:31:12;;;;;;;;;;;17.30;91.00;;;;;;4362623;32;44029;-85
2022/06/21 03:33:41;;;;;;;;;;;17.30;91.00;;;;;;4362858;32;44184;-85
2022/06/21 03:36:11;;;;;;;;;;;17.30;91.00;;;;;;4362849;32;45471;-86
2022/06/21 03:38:40;;;;;;;;;;;17.30;91.10;;;;;;4362518;32;42829;-86
2022/06/21 03:43:57;;;;;;;;;;;17.20;91.00;;;;;;4376451;32;44163;-86
2022/06/21 03:46:26;;;;;;;;;;;17.20;91.10;;;;;;4362726;32;45297;-86
2022/06/21 03:49:00;;;;;;;;;;;17.20;91.00;;;;;;4363525;32;20113;-86
2022/06/21 03:51:36;;;;;;;;;;;17.20;91.00;;;;;;4375995;32;43640;-86
2022/06/21 03:54:03;;;;;;;;;;;17.20;91.00;;;;;;4376295;32;44834;-86
2022/06/21 03:56:35;;;;;;;;;;;17.20;91.10;;;;;;4376115;32;44452;-85
2022/06/21 03:59:09;;;;;;;;;;;17.10;91.10;;;;;;4362789;32;43140;-86
2022/06/21 04:01:57;;;;;;;;;;;17.10;91.20;;;;;;4361799;32;45027;-85
2022/06/21 04:04:29;;;;;;;;;;;17.20;91.30;;;;;;4362350;32;43927;-85
2022/06/21 04:07:02;;;;;;;;;;;17.10;91.30;;;;;;4362264;32;43169;-86
2022/06/21 04:09:46;;;;;;;;;;;17.10;91.30;;;;;;4362534;32;45022;-86
2022/06/21 04:12:24;;;;;;;;;;;17.10;91.20;;;;;;4375954;32;43812;-86
2022/06/21 04:15:02;;;;;;;;;;;17.20;91.20;;;;;;4375859;32;42493;-85
2022/06/21 04:17:33;;;;;;;;;;;17.10;91.20;;;;;;4362545;32;43510;-85
2022/06/21 04:20:04;;;;;;;;;;;17.10;91.30;;;;;;4362630;32;20003;-86
2022/06/21 04:22:31;;;;;;;;;;;17.10;91.30;;;;;;4362562;32;43383;-85
2022/06/21 04:25:04;;;;;;;;;;;17.10;91.30;;;;;;4375767;32;45696;-86
2022/06/21 04:27:37;;;;;;;;;;;17.10;91.30;;;;;;4375777;32;44256;-85
2022/06/21 04:30:08;;;;;;;;;;;17.10;91.40;;;;;;4361873;32;42993;-85
2022/06/21 04:32:43;;;;;;;;;;;17.10;91.50;;;;;;4375312;32;43057;-85
2022/06/21 04:35:14;;;;;;;;;;;17.10;91.50;;;;;;4362311;32;43313;-86
2022/06/21 04:37:55;;;;;;;;;;;17.10;91.50;;;;;;4375616;32;43472;-85
2022/06/21 04:40:22;;;;;;;;;;;17.10;91.50;;;;;;4362028;32;44720;-86
2022/06/21 04:42:54;;;;;;;;;;;17.10;91.50;;;;;;4361971;32;42727;-85
2022/06/21 04:45:28;;;;;;;;;;;17.10;91.60;;;;;;4361602;32;42682;-82
2022/06/21 04:47:59;;;;;;;;;;;17.10;91.60;;;;;;4361906;32;44423;-85
2022/06/21 04:50:26;;;;;;;;;;;17.00;91.60;;;;;;4362731;32;20015;-85
2022/06/21 04:52:59;;;;;;;;;;;17.00;91.60;;;;;;4361886;32;43011;-85
2022/06/21 04:55:49;;;;;;;;;;;17.00;91.60;;;;;;4361848;32;45840;-85
2022/06/21 04:58:16;;;;;;;;;;;17.00;91.70;;;;;;4354186;32;42784;-86
2022/06/21 05:00:44;;;;;;;;;;;17.00;91.80;;;;;;4361004;32;44634;-85
2022/06/21 05:03:30;;;;;;;;;;;17.00;91.80;;;;;;4361225;32;42841;-85
2022/06/21 05:05:58;;;;;;;;;;;17.00;91.90;;;;;;4361165;32;42759;-85
2022/06/21 05:08:25;;;;;;;;;;;17.00;92.00;;;;;;4360872;32;43972;-85
2022/06/21 05:10:55;;;;;;;;;;;17.00;92.00;;;;;;4361137;32;44721;-86
2022/06/21 05:13:22;;;;;;;;;;;17.00;92.00;;;;;;4374196;32;43522;-85
2022/06/21 05:15:49;;;;;;;;;;;17.00;92.10;;;;;;4375042;32;44073;-86
2022/06/21 05:18:34;;;;;;;;;;;17.00;92.10;;;;;;4361332;32;43237;-85
2022/06/21 05:21:06;;;;;;;;;;;17.00;92.00;;;;;;4374624;32;43601;-85
2022/06/21 05:23:33;;;;;;;;;;;17.00;92.10;;;;;;4374924;32;43569;-85
2022/06/21 05:26:01;;;;;;;;;;;16.90;92.30;;;;;;4374810;32;43836;-85
2022/06/21 05:28:51;;;;;;;;;;;17.00;92.40;;;;;;4361775;32;44215;-85
2022/06/21 05:31:30;;;;;;;;;;;17.00;92.60;;;;;;4374339;32;43534;-86
2022/06/21 05:34:04;;;;;;;;;;;16.90;92.60;;;;;;4374807;32;44217;-85
2022/06/21 05:36:34;;;;;;;;;;;16.90;92.90;;;;;;4374894;32;43180;-86
2022/06/21 05:39:12;;;;;;;;;;;16.90;92.90;;;;;;4374315;32;42491;-85
2022/06/21 05:41:41;;;;;;;;;;;17.00;92.90;;;;;;4361230;32;42947;-84
2022/06/21 05:44:15;;;;;;;;;;;16.90;92.90;;;;;;4374827;32;43607;-85
2022/06/21 05:46:46;;;;;;;;;;;17.00;92.90;;;;;;4361565;32;44175;-84
2022/06/21 05:49:19;;;;;;;;;;;17.00;92.90;;;;;;4361499;32;44374;-84
2022/06/21 05:51:47;;;;;;;;;;;17.00;92.90;;;;;;4361947;32;19992;-85
2022/06/21 05:54:16;;;;;;;;;;;17.00;92.90;;;;;;4374854;32;45180;-84
2022/06/21 05:56:43;;;;;;;;;;;17.00;92.90;;;;;;4360868;32;45959;-86
2022/06/21 05:59:12;;;;;;;;;;;17.00;93.10;;;;;;4374589;32;44476;-84
2022/06/21 06:01:43;;;;;;;;;;;17.00;93.30;;;;;;4373866;32;46123;-85
2022/06/21 06:04:29;;;;;;;;;;;17.10;93.10;;;;;;4361388;32;44339;-86
2022/06/21 06:06:57;;;;;;;;;;;17.10;93.00;;;;;;4374472;32;42636;-85
2022/06/21 06:09:30;;;;;;;;;;;17.10;93.20;;;;;;4361259;32;44217;-85
2022/06/21 06:12:03;;;;;;;;;;;17.10;93.10;;;;;;4361151;32;42992;-85
2022/06/21 06:14:43;;;;;;;;;;;17.10;93.00;;;;;;4374710;32;44394;-83
2022/06/21 06:17:28;;;;;;;;;;;17.10;93.10;;;;;;4374644;32;44797;-82
2022/06/21 06:19:59;;;;;;;;;;;17.10;93.10;;;;;;4361704;32;43339;-86
2022/06/21 06:22:38;;;;;;;;;;;17.10;92.90;;;;;;4361193;32;45774;-86
2022/06/21 06:25:20;;;;;;;;;;;17.10;93.10;;;;;;4377646;32;43482;-85
2022/06/21 06:28:06;;;;;;;;;;;17.10;93.20;;;;;;4363965;32;43091;-85
2022/06/21 06:30:57;;;;;;;;;;;17.10;93.10;;;;;;4363797;32;46221;-84
2022/06/21 06:33:26;;;;;;;;;;;17.10;93.10;;;;;;4336429;32;44002;-81
2022/06/21 06:35:54;;;;;;;;;;;17.10;93.20;;;;;;4363731;32;43077;-83
2022/06/21 06:38:21;;;;;;;;;;;17.10;93.20;;;;;;4363276;32;43304;-82
2022/06/21 06:41:17;;;;;;;;;;;17.10;93.20;;;;;;4376968;32;43195;-84
2022/06/21 06:43:50;;;;;;;;;;;17.10;93.10;;;;;;4356497;32;43299;-85
2022/06/21 06:46:26;;;;;;;;;;;17.10;93.10;;;;;;4363554;32;43225;-84
2022/06/21 06:49:14;;;;;;;;;;;17.20;93.20;;;;;;4376979;32;45812;-83
2022/06/21 06:51:43;;;;;;;;;;;17.20;93.30;;;;;;4333374;32;44210;-84
2022/06/21 06:54:14;;;;;;;;;;;17.20;93.50;;;;;;4376488;32;43293;-83
2022/06/21 06:56:48;;;;;;;;;;;17.20;93.50;;;;;;4376913;32;44461;-84
2022/06/21 06:59:17;;;;;;;;;;;17.20;93.40;;;;;;4376521;32;43208;-82
2022/06/21 07:01:57;;;;;;;;;;;17.30;93.40;;;;;;4362864;32;42956;-80
2022/06/21 07:04:28;;;;;;;;;;;17.30;93.30;;;;;;4363497;32;46429;-82
2022/06/21 07:06:59;;;;;;;;;;;17.30;93.60;;;;;;4363402;32;44212;-84
2022/06/21 07:09:35;;;;;;;;;;;17.30;93.40;;;;;;4362971;32;43923;-84
2022/06/21 07:12:16;;;;;;;;;;;17.30;93.60;;;;;;4376419;32;42291;-84
2022/06/21 07:14:44;;;;;;;;;;;17.30;93.60;;;;;;4363154;32;43466;-83
2022/06/21 07:17:31;;;;;;;;;;;17.40;93.50;;;;;;4363299;32;44207;-83
2022/06/21 07:19:58;;;;;;;;;;;17.40;93.40;;;;;;4362760;32;44004;-84
2022/06/21 07:22:28;;;;;;;;;;;17.40;93.50;;;;;;4376864;32;20013;-84
2022/06/21 07:25:02;;;;;;;;;;;17.40;93.40;;;;;;4376076;32;43651;-83
2022/06/21 07:27:31;;;;;;;;;;;17.40;93.40;;;;;;4376064;32;43278;-83
2022/06/21 07:30:07;;;;;;;;;;;17.40;93.30;;;;;;4363092;32;42979;-83
2022/06/21 07:33:00;;;;;;;;;;;17.40;93.60;;;;;;4362580;32;44050;-84
2022/06/21 07:35:33;;;;;;;;;;;17.40;93.20;;;;;;4359070;32;45590;-83
2022/06/21 07:38:10;;;;;;;;;;;17.50;93.40;;;;;;4362437;32;42901;-83
2022/06/21 07:40:39;;;;;;;;;;;17.40;93.40;;;;;;4362711;32;45021;-82
2022/06/21 07:43:13;;;;;;;;;;;17.40;93.40;;;;;;4362378;32;43455;-82
2022/06/21 07:45:42;;;;;;;;;;;17.40;93.40;;;;;;4362831;32;43451;-83
2022/06/21 07:48:15;;;;;;;;;;;17.40;93.70;;;;;;4362182;32;42691;-82
2022/06/21 07:50:47;;;;;;;;;;;17.50;93.70;;;;;;4362610;32;43334;-84
2022/06/21 07:53:21;;;;;;;;;;;17.50;93.70;;;;;;4375581;32;44851;-83
2022/06/21 07:56:07;;;;;;;;;;;17.50;93.60;;;;;;4362326;32;43290;-80
2022/06/21 07:58:41;;;;;;;;;;;17.50;94.00;;;;;;4375944;32;44198;-82
2022/06/21 08:07:13;;;;;;;;;;;17.60;93.10;;;;;;4355311;32;45337;-81
2022/06/21 08:09:45;;;;;;;;;;;17.60;92.80;;;;;;4362380;32;44106;-81
2022/06/21 08:12:13;;;;;;;;;;;17.60;93.00;;;;;;4362371;32;43307;-80
2022/06/21 08:14:40;;;;;;;;;;;17.60;93.20;;;;;;4361913;32;46328;-80
2022/06/21 08:17:07;;;;;;;;;;;17.60;93.00;;;;;;4375894;32;44691;-80
2022/06/21 08:19:53;;;;;;;;;;;17.60;93.30;;;;;;4362010;32;45367;-84
2022/06/21 08:22:23;;;;;;;;;;;17.60;93.20;;;;;;4375008;32;44828;-80
2022/06/21 08:24:54;;;;;;;;;;;17.60;93.10;;;;;;4363160;32;20467;-81
2022/06/21 08:27:24;;;;;;;;;;;17.70;93.10;;;;;;4375615;32;44232;-87
2022/06/21 08:29:57;;;;;;;;;;;17.60;93.10;;;;;;4361386;32;45105;-80
2022/06/21 08:32:31;;;;;;;;;;;17.60;93.20;;;;;;4361843;32;44936;-80
2022/06/21 08:35:02;;;;;;;;;;;17.70;93.00;;;;;;4375412;32;44100;-78
2022/06/21 08:37:40;;;;;;;;;;;17.70;92.90;;;;;;4362266;32;43489;-80
2022/06/21 08:40:07;;;;;;;;;;;17.70;92.30;;;;;;4361610;32;42895;-78
2022/06/21 08:42:37;;;;;;;;;;;17.70;92.50;;;;;;4361957;32;44254;-80
2022/06/21 08:45:50;;;;;;;;;;;17.70;92.60;;;;;;4361747;32;46063;-80
2022/06/21 08:48:05;;;;;;;;;;;17.70;92.40;;;;;;4364917;32;42921;-80
2022/06/21 08:50:39;;;;;;;;;;;17.70;92.60;;;;;;4361718;32;43974;-81
2022/06/21 08:53:25;;;;;;;;;;;17.80;92.80;;;;;;4361610;32;42758;-80
2022/06/21 08:56:01;;;;;;;;;;;17.80;92.90;;;;;;4374738;32;43883;-80
2022/06/21 08:58:44;;;;;;;;;;;17.80;92.60;;;;;;4374876;32;43104;-80
2022/06/21 09:01:14;;;;;;;;;;;17.80;92.60;;;;;;4374752;32;43597;-84
2022/06/21 09:03:58;;;;;;;;;;;17.80;92.40;;;;;;4375331;32;43475;-80
2022/06/21 09:06:35;;;;;;;;;;;17.80;92.40;;;;;;4361849;32;44814;-80
2022/06/21 09:09:24;;;;;;;;;;;17.80;92.70;;;;;;4361405;32;44867;-84
2022/06/21 09:12:11;;;;;;;;;;;17.80;92.60;;;;;;4361753;32;44670;-80
2022/06/21 09:14:59;;;;;;;;;;;17.80;92.50;;;;;;4351417;32;43850;-80
2022/06/21 09:17:33;;;;;;;;;;;17.80;92.70;;;;;;4351218;32;44351;-80
2022/06/21 09:20:21;;;;;;;;;;;17.90;93.00;;;;;;4361583;32;44148;-80
2022/06/21 09:23:12;;;;;;;;;;;17.80;92.50;;;;;;4363609;32;41962;-79
2022/06/21 09:25:39;;;;;;;;;;;17.90;92.70;;;;;;4361493;32;44246;-80
2022/06/21 09:28:10;;;;;;;;;;;17.90;92.20;;;;;;4361275;32;43213;-80
2022/06/21 09:30:55;;;;;;;;;;;17.90;92.30;;;;;;4361498;32;43473;-79
2022/06/21 09:33:39;;;;;;;;;;;17.90;92.50;;;;;;4375099;32;44147;-80
2022/06/21 09:36:06;;;;;;;;;;;17.90;92.50;;;;;;4361526;32;45002;-79
2022/06/21 09:38:52;;;;;;;;;;;17.90;92.60;;;;;;4374563;32;42962;-80
2022/06/21 09:41:45;;;;;;;;;;;17.90;92.70;;;;;;4360920;32;45424;-80
2022/06/21 09:44:33;;;;;;;;;;;17.90;92.40;;;;;;4338865;32;43133;-80
2022/06/21 09:47:13;;;;;;;;;;;18.00;92.50;;;;;;4374955;32;43363;-79
2022/06/21 09:49:55;;;;;;;;;;;17.90;92.70;;;;;;4360972;32;43261;-79
2022/06/21 09:52:35;;;;;;;;;;;18.00;92.60;;;;;;4374947;32;43961;-80
2022/06/21 09:55:07;;;;;;;;;;;18.00;92.80;;;;;;4374993;32;43242;-81
2022/06/21 09:57:40;;;;;;;;;;;18.00;92.60;;;;;;4374997;32;44184;-80
2022/06/21 10:00:18;;;;;;;;;;;18.00;92.50;;;;;;4363768;32;43364;-79
2022/06/21 10:03:04;;;;;;;;;;;17.90;92.70;;;;;;4363581;32;43734;-80
2022/06/21 10:05:42;;;;;;;;;;;18.00;92.70;;;;;;4363676;32;42954;-80
2022/06/21 10:08:12;;;;;;;;;;;18.00;93.00;;;;;;4364226;32;43056;-80
2022/06/21 10:10:45;;;;;;;;;;;18.00;93.00;;;;;;4363685;32;44738;-80
2022/06/21 10:13:21;;;;;;;;;;;18.00;92.90;;;;;;4377428;32;45563;-79
2022/06/21 10:15:54;;;;;;;;;;;18.00;92.50;;;;;;4363494;32;43998;-80
2022/06/21 10:18:40;;;;;;;;;;;18.00;92.40;;;;;;4377405;32;44241;-80
2022/06/21 10:21:16;;;;;;;;;;;18.00;92.60;;;;;;4363844;32;43065;-80
2022/06/21 10:24:07;;;;;;;;;;;18.00;92.60;;;;;;4377245;32;43239;-80
2022/06/21 10:26:40;;;;;;;;;;;18.00;92.60;;;;;;4363596;32;41988;-80
2022/06/21 10:29:31;;;;;;;;;;;18.00;92.00;;;;;;4363524;32;43997;-80
2022/06/21 10:32:04;;;;;;;;;;;18.00;92.00;;;;;;4355850;32;43514;-80
2022/06/21 10:34:50;;;;;;;;;;;18.00;92.00;;;;;;4363806;32;44896;-80
2022/06/21 10:37:36;;;;;;;;;;;18.00;91.90;;;;;;4363486;32;44544;-80
2022/06/21 10:40:29;;;;;;;;;;;18.00;92.10;;;;;;4364143;32;43631;-80
2022/06/21 10:43:13;;;;;;;;;;;18.10;92.40;;;;;;4363053;32;44214;-80
2022/06/21 10:45:58;;;;;;;;;;;18.00;92.30;;;;;;4363818;32;43176;-79
2022/06/21 10:48:44;;;;;;;;;;;18.10;92.20;;;;;;4363126;32;44253;-80
2022/06/21 10:51:24;;;;;;;;;;;18.10;92.30;;;;;;4377059;32;44002;-80
2022/06/21 10:54:09;;;;;;;;;;;18.10;92.30;;;;;;4363452;32;42960;-80
2022/06/21 11:02:56;;;;;;;;;;;18.10;92.10;;;;;;4376008;32;44143;-80
2022/06/21 11:05:53;;;;;;;;;;;18.20;92.00;;;;;;4376596;32;45604;-80
2022/06/21 11:08:41;;;;;;;;;;;18.20;92.10;;;;;;4363626;32;45862;-83
2022/06/21 11:11:17;;;;;;;;;;;18.20;92.20;;;;;;4362424;32;44231;-79
2022/06/21 11:13:57;;;;;;;;;;;18.20;92.20;;;;;;4363158;32;44817;-80
2022/06/21 11:16:47;;;;;;;;;;;18.20;92.20;;;;;;4363978;32;43153;-80
2022/06/21 11:19:22;;;;;;;;;;;18.20;92.10;;;;;;4362997;32;44082;-80
2022/06/21 11:21:49;;;;;;;;;;;18.20;91.80;;;;;;4376435;32;42792;-80
2022/06/21 11:24:33;;;;;;;;;;;18.20;92.50;;;;;;4376473;32;43470;-80
2022/06/21 11:27:15;;;;;;;;;;;18.30;92.10;;;;;;4363273;32;43862;-80
2022/06/21 11:29:58;;;;;;;;;;;18.20;92.10;;;;;;4363810;32;20410;-80
2022/06/21 11:32:37;;;;;;;;;;;18.30;92.30;;;;;;4362770;32;44279;-80
2022/06/21 11:35:31;;;;;;;;;;;18.30;92.10;;;;;;4362549;32;43466;-80
2022/06/21 11:38:10;;;;;;;;;;;18.30;92.20;;;;;;4373843;32;43964;-80
2022/06/21 11:41:01;;;;;;;;;;;18.30;92.20;;;;;;4362607;32;42545;-80
2022/06/21 11:43:47;;;;;;;;;;;18.30;92.20;;;;;;4335226;32;45790;-81
2022/06/21 11:46:20;;;;;;;;;;;18.30;92.20;;;;;;4362675;32;44756;-80
2022/06/21 11:48:53;;;;;;;;;;;18.30;92.10;;;;;;4376024;32;42664;-80
2022/06/21 11:51:23;;;;;;;;;;;18.30;92.00;;;;;;4362565;32;44896;-80
2022/06/21 11:53:54;;;;;;;;;;;18.30;92.20;;;;;;4375477;32;44689;-80
2022/06/21 11:56:30;;;;;;;;;;;18.40;92.40;;;;;;4375984;32;43211;-80
2022/06/21 11:59:17;;;;;;;;;;;18.30;92.20;;;;;;4375649;32;43845;-80
2022/06/21 12:01:51;;;;;;;;;;;18.40;92.10;;;;;;4375701;32;46051;-80
2022/06/21 12:04:19;;;;;;;;;;;18.40;92.00;;;;;;4362543;32;43598;-80
2022/06/21 12:06:52;;;;;;;;;;;18.40;91.70;;;;;;4375543;32;42906;-80
2022/06/21 12:09:37;;;;;;;;;;;18.40;91.60;;;;;;4375581;32;43922;-80
2022/06/21 12:12:12;;;;;;;;;;;18.40;91.70;;;;;;4362253;32;45423;-79
2022/06/21 12:14:55;;;;;;;;;;;18.40;91.70;;;;;;4362406;32;44216;-80
2022/06/21 12:17:33;;;;;;;;;;;18.40;91.80;;;;;;4362117;32;42848;-78
2022/06/21 12:20:03;;;;;;;;;;;18.40;91.80;;;;;;4361830;32;42746;-79
2022/06/21 12:22:35;;;;;;;;;;;18.50;91.90;;;;;;4362070;32;44199;-79
2022/06/21 12:25:02;;;;;;;;;;;18.50;91.90;;;;;;4375609;32;45095;-79
2022/06/21 12:27:29;;;;;;;;;;;18.50;91.90;;;;;;4361504;32;44038;-78
2022/06/21 12:29:59;;;;;;;;;;;18.50;91.70;;;;;;4374877;32;45253;-81
2022/06/21 12:32:27;;;;;;;;;;;18.50;91.70;;;;;;4362108;32;42334;-80
2022/06/21 12:35:02;;;;;;;;;;;18.50;91.80;;;;;;4375669;32;43918;-78
2022/06/21 12:37:41;;;;;;;;;;;18.60;91.50;;;;;;4361989;32;45313;-78
2022/06/21 12:40:11;;;;;;;;;;;18.60;91.70;;;;;;4375398;32;44223;-80
2022/06/21 12:42:57;;;;;;;;;;;18.60;91.40;;;;;;4361729;32;43545;-79
2022/06/21 12:45:34;;;;;;;;;;;18.60;91.40;;;;;;4362403;32;44189;-79
2022/06/21 12:48:10;;;;;;;;;;;18.70;91.20;;;;;;4375322;32;42759;-78
2022/06/21 12:50:50;;;;;;;;;;;18.70;91.40;;;;;;4375471;32;44479;-78
2022/06/21 12:53:29;;;;;;;;;;;18.70;91.30;;;;;;4361435;32;42458;-77
2022/06/21 12:56:03;;;;;;;;;;;18.70;91.40;;;;;;4362690;32;45886;-79
2022/06/21 12:58:30;;;;;;;;;;;18.70;91.30;;;;;;4374870;32;44625;-78
2022/06/21 13:01:00;;;;;;;;;;;18.70;91.20;;;;;;4361538;32;44218;-79
2022/06/21 13:03:37;;;;;;;;;;;18.70;91.10;;;;;;4375747;32;20009;-80
2022/06/21 13:06:08;;;;;;;;;;;18.70;91.10;;;;;;4375238;32;43531;-78
2022/06/21 13:08:40;;;;;;;;;;;18.80;90.60;;;;;;4374642;32;44250;-79
2022/06/21 13:11:19;;;;;;;;;;;18.80;91.20;;;;;;4361785;32;44229;-78
2022/06/21 13:14:04;;;;;;;;;;;18.70;91.20;;;;;;4375472;32;43181;-78
2022/06/21 13:16:37;;;;;;;;;;;18.80;91.20;;;;;;4375049;32;43926;-79
2022/06/21 13:19:21;;;;;;;;;;;18.80;91.20;;;;;;4361266;32;43731;-78
2022/06/21 13:22:01;;;;;;;;;;;18.80;91.10;;;;;;4374553;32;44168;-79
2022/06/21 13:24:28;;;;;;;;;;;18.80;91.10;;;;;;4361383;32;45138;-81
2022/06/21 13:27:14;;;;;;;;;;;18.80;91.00;;;;;;4361436;32;43184;-78
2022/06/21 13:29:47;;;;;;;;;;;18.80;90.90;;;;;;4360959;32;42736;-78
2022/06/21 13:32:17;;;;;;;;;;;18.80;91.00;;;;;;4375378;32;42834;-78
2022/06/21 13:34:48;;;;;;;;;;;18.90;91.20;;;;;;4377952;32;44030;-77
2022/06/21 13:37:22;;;;;;;;;;;18.80;90.90;;;;;;4377608;32;43479;-77
2022/06/21 13:40:06;;;;;;;;;;;18.90;91.20;;;;;;4364547;32;44103;-78
2022/06/21 13:42:37;;;;;;;;;;;18.90;91.20;;;;;;4377746;32;43706;-78
2022/06/21 13:45:28;;;;;;;;;;;18.90;91.30;;;;;;4364665;32;43845;-79
2022/06/21 13:48:23;;;;;;;;;;;18.90;91.20;;;;;;4377785;32;42679;-78
2022/06/21 13:51:00;;;;;;;;;;;18.90;91.40;;;;;;4377804;32;43271;-80
2022/06/21 13:53:28;;;;;;;;;;;19.00;91.30;;;;;;4377784;32;44749;-79
2022/06/21 13:56:01;;;;;;;;;;;18.90;91.20;;;;;;4378017;32;43287;-79
2022/06/21 13:58:32;;;;;;;;;;;19.00;91.40;;;;;;4377908;32;43035;-78
2022/06/21 14:01:03;;;;;;;;;;;19.00;90.70;;;;;;4363768;32;43787;-78
2022/06/21 14:03:50;;;;;;;;;;;19.00;90.10;;;;;;4376868;32;45731;-79
2022/06/21 14:06:18;;;;;;;;;;;19.00;90.30;;;;;;4365267;32;20016;-78
2022/06/21 14:09:05;;;;;;;;;;;19.00;90.40;;;;;;4377564;32;43029;-80
2022/06/21 14:11:51;;;;;;;;;;;19.10;90.70;;;;;;4334239;32;44010;-78
2022/06/21 14:14:25;;;;;;;;;;;19.10;90.10;;;;;;4377175;32;45268;-80
2022/06/21 14:16:55;;;;;;;;;;;19.10;89.70;;;;;;4377526;32;44319;-79
2022/06/21 14:19:45;;;;;;;;;;;19.10;89.60;;;;;;4377192;32;43044;-78
2022/06/21 14:22:12;;;;;;;;;;;19.10;89.60;;;;;;4376943;32;43836;-80
2022/06/21 14:24:42;;;;;;;;;;;19.10;89.60;;;;;;4363255;32;45277;-81
2022/06/21 14:27:12;;;;;;;;;;;19.10;89.70;;;;;;4377366;32;43478;-79
2022/06/21 14:29:42;;;;;;;;;;;19.10;89.70;;;;;;4376674;32;43475;-78
2022/06/21 14:32:26;;;;;;;;;;;19.10;89.90;;;;;;4363623;32;44840;-79
2022/06/21 14:35:02;;;;;;;;;;;19.10;90.10;;;;;;4377423;32;43288;-79
2022/06/21 14:37:48;;;;;;;;;;;19.20;90.20;;;;;;4363805;32;43904;-79
2022/06/21 14:40:30;;;;;;;;;;;19.20;90.00;;;;;;4364977;32;43916;-79
2022/06/21 14:43:05;;;;;;;;;;;19.20;89.50;;;;;;4363676;32;43189;-80
2022/06/21 14:45:47;;;;;;;;;;;19.20;89.60;;;;;;4363584;32;44392;-79
2022/06/21 14:48:23;;;;;;;;;;;19.20;90.00;;;;;;4376483;32;42772;-80
2022/06/21 14:50:54;;;;;;;;;;;19.20;89.90;;;;;;4363617;32;44866;-79
2022/06/21 14:53:50;;;;;;;;;;;19.20;89.80;;;;;;4376927;32;45836;-80
2022/06/21 14:56:25;;;;;;;;;;;19.20;89.20;;;;;;4363934;32;42832;-80
2022/06/21 14:59:05;;;;;;;;;;;19.20;90.00;;;;;;4376583;32;42958;-79
2022/06/21 15:01:59;;;;;;;;;;;19.20;90.20;;;;;;4365433;32;46245;-80
2022/06/21 15:04:37;;;;;;;;;;;19.30;90.10;;;;;;4363613;32;44201;-79
2022/06/21 15:07:04;;;;;;;;;;;19.30;90.20;;;;;;4377227;32;20009;-79
2022/06/21 15:09:43;;;;;;;;;;;19.30;90.00;;;;;;4362805;32;43019;-79
2022/06/21 15:12:13;;;;;;;;;;;19.30;90.00;;;;;;4376805;32;43865;-80
2022/06/21 15:14:45;;;;;;;;;;;19.30;90.10;;;;;;4376852;32;44278;-80
2022/06/21 15:17:18;;;;;;;;;;;19.30;89.50;;;;;;4363195;32;45086;-79